Time;durP1;ratioP1;P1;durP2;ratioP2;P2;SDS_P1;SDS_P2;PMS_P1;PMS_P2;Temp;Humidity;BMP_temperature;BMP_pressure;BME280_temperature;BME280_humidity;BME280_pressure;Samples;Min_cycle;Max_cycle;Signal;HPM_P1;HPM_P2
2023/11/24 00:02:07;;;;;;;10.25;1.50;;;7.80;99.90;;;;;;5065309;28;20482;-73
2023/11/24 00:04:33;;;;;;;8.88;1.42;;;7.90;99.90;;;;;;5056571;28;20043;-72
2023/11/24 00:07:03;;;;;;;9.75;1.35;;;7.90;99.90;;;;;;5065242;28;20029;-72
2023/11/24 00:09:31;;;;;;;12.15;1.83;;;7.90;99.90;;;;;;5069019;28;20036;-73
2023/11/24 00:11:58;;;;;;;12.52;2.17;;;7.90;99.90;;;;;;5071282;28;20109;-72
2023/11/24 00:14:24;;;;;;;14.20;2.38;;;7.90;99.90;;;;;;5068988;28;20384;-72
2023/11/24 00:16:50;;;;;;;11.32;1.77;;;7.80;99.90;;;;;;5044786;28;20112;-72
2023/11/24 00:19:15;;;;;;;9.00;2.42;;;8.30;99.90;;;;;;5060525;28;20098;-73
2023/11/24 00:21:46;;;;;;;13.73;1.92;;;7.80;99.90;;;;;;5048503;28;20683;-72
2023/11/24 00:24:13;;;;;;;11.68;1.90;;;7.80;99.90;;;;;;5041146;28;20049;-73
2023/11/24 00:26:39;;;;;;;15.30;2.65;;;7.80;99.90;;;;;;5047315;28;20041;-73
2023/11/24 00:29:04;;;;;;;15.43;2.55;;;7.80;99.90;;;;;;5043240;28;20071;-72
2023/11/24 00:31:31;;;;;;;21.77;2.50;;;7.70;99.90;;;;;;5044370;28;20051;-73
2023/11/24 00:33:56;;;;;;;13.45;2.42;;;7.70;99.90;;;;;;5070238;28;20045;-73
2023/11/24 00:36:23;;;;;;;26.25;3.72;;;7.70;99.90;;;;;;5049643;28;20405;-73
2023/11/24 00:38:50;;;;;;;20.35;3.33;;;7.70;99.90;;;;;;5045028;28;20040;-73
2023/11/24 00:41:18;;;;;;;16.88;3.35;;;7.70;99.90;;;;;;5061522;28;20055;-72
2023/11/24 00:43:45;;;;;;;18.92;3.25;;;7.70;99.90;;;;;;5057657;28;20032;-72
2023/11/24 00:46:11;;;;;;;20.08;3.00;;;7.70;99.90;;;;;;5070377;28;20043;-73
2023/11/24 00:48:37;;;;;;;17.92;3.22;;;7.70;99.90;;;;;;5026322;28;20041;-73
2023/11/24 00:51:04;;;;;;;17.27;2.97;;;7.70;99.90;;;;;;5050652;28;20120;-73
2023/11/24 00:53:33;;;;;;;13.98;2.55;;;7.70;99.90;;;;;;5032343;28;20037;-73
2023/11/24 00:55:58;;;;;;;21.02;3.22;;;8.10;99.90;;;;;;5049191;28;20033;-73
2023/11/24 00:58:24;;;;;;;18.77;3.25;;;7.60;99.90;;;;;;5044774;28;20106;-73
2023/11/24 01:00:55;;;;;;;20.85;3.95;;;7.60;99.90;;;;;;5035916;28;20037;-73
2023/11/24 01:03:21;;;;;;;20.85;3.30;;;7.60;99.90;;;;;;5058359;28;20067;-72
2023/11/24 01:05:49;;;;;;;20.02;3.15;;;7.60;99.90;;;;;;5048859;28;20041;-72
2023/11/24 01:08:15;;;;;;;24.27;3.53;;;7.60;99.90;;;;;;5044539;28;20048;-73
2023/11/24 01:10:41;;;;;;;23.52;3.25;;;7.60;99.90;;;;;;5044501;28;20094;-73
2023/11/24 01:13:07;;;;;;;17.60;2.92;;;7.60;99.90;;;;;;5056967;28;20048;-73
2023/11/24 01:15:32;;;;;;;18.00;3.15;;;7.60;99.90;;;;;;5067405;28;20119;-73
2023/11/24 01:17:59;;;;;;;25.17;3.53;;;7.50;99.90;;;;;;5044481;28;20087;-72
2023/11/24 01:20:25;;;;;;;16.17;3.38;;;7.50;99.90;;;;;;5058443;28;20041;-72
2023/11/24 01:22:50;;;;;;;17.40;3.28;;;7.60;99.90;;;;;;5056435;28;20126;-73
2023/11/24 01:25:16;;;;;;;14.70;3.10;;;7.50;99.90;;;;;;5045770;28;20091;-72
2023/11/24 01:27:42;;;;;;;14.88;2.75;;;7.50;99.90;;;;;;5050643;28;20044;-72
2023/11/24 01:30:08;;;;;;;21.70;3.13;;;7.50;99.90;;;;;;5042641;28;20112;-72
2023/11/24 01:32:34;;;;;;;19.85;3.70;;;7.50;99.90;;;;;;5025792;28;20045;-73
2023/11/24 01:35:00;;;;;;;17.13;3.55;;;7.60;99.90;;;;;;5063907;28;20033;-73
2023/11/24 01:37:25;;;;;;;15.48;2.90;;;7.50;99.90;;;;;;5048970;28;20115;-73
2023/11/24 01:39:53;;;;;;;20.00;2.92;;;7.60;99.90;;;;;;5048434;28;20044;-73
2023/11/24 01:42:19;;;;;;;18.05;2.95;;;7.60;99.90;;;;;;5059349;28;20040;-74
2023/11/24 01:44:45;;;;;;;18.60;3.60;;;7.60;99.90;;;;;;5026784;28;20063;-74
2023/11/24 01:47:11;;;;;;;12.10;2.60;;;7.60;99.90;;;;;;5048789;28;20378;-74
2023/11/24 01:49:38;;;;;;;19.52;3.17;;;7.50;99.90;;;;;;5044651;28;20102;-73
2023/11/24 01:52:05;;;;;;;15.88;3.92;;;7.50;99.90;;;;;;5055567;28;20562;-73
2023/11/24 01:54:36;;;;;;;23.55;3.35;;;7.50;99.90;;;;;;5037886;28;20381;-73
2023/11/24 01:57:07;;;;;;;14.73;2.97;;;7.50;99.90;;;;;;5044320;28;20128;-73
2023/11/24 01:59:34;;;;;;;21.42;3.00;;;7.50;99.90;;;;;;5055088;28;20048;-73
2023/11/24 02:02:06;;;;;;;15.80;3.13;;;7.50;99.90;;;;;;5045510;28;20075;-73
2023/11/24 02:04:32;;;;;;;15.30;3.20;;;7.50;99.90;;;;;;5066071;28;20094;-73
2023/11/24 02:06:58;;;;;;;14.63;3.15;;;7.50;99.90;;;;;;5047567;28;20463;-73
2023/11/24 02:09:29;;;;;;;13.48;2.35;;;7.50;99.90;;;;;;5070475;28;20496;-73
2023/11/24 02:11:59;;;;;;;23.67;3.63;;;7.50;99.90;;;;;;5061837;28;20052;-73
2023/11/24 02:14:28;;;;;;;17.88;3.30;;;7.50;99.90;;;;;;5054299;28;20046;-73
2023/11/24 02:16:59;;;;;;;17.55;2.42;;;7.50;99.90;;;;;;5042452;28;20051;-73
2023/11/24 02:19:25;;;;;;;17.48;2.80;;;7.50;99.90;;;;;;5051358;28;20455;-73
2023/11/24 02:21:50;;;;;;;17.45;2.88;;;7.50;99.90;;;;;;5059869;28;20516;-74
2023/11/24 02:24:16;;;;;;;15.85;2.55;;;7.50;99.90;;;;;;5068993;28;20043;-73
2023/11/24 02:26:41;;;;;;;14.88;2.90;;;7.50;99.90;;;;;;5063082;28;20037;-73
2023/11/24 02:29:09;;;;;;;17.45;3.17;;;7.60;99.90;;;;;;5042186;28;20447;-73
2023/11/24 02:31:35;;;;;;;15.88;2.67;;;7.50;99.90;;;;;;5046645;28;20052;-73
2023/11/24 02:34:01;;;;;;;13.10;2.60;;;7.50;99.90;;;;;;5070674;28;20401;-73
2023/11/24 02:36:30;;;;;;;14.98;2.65;;;7.50;99.90;;;;;;5056245;28;20179;-73
2023/11/24 02:38:58;;;;;;;16.75;2.60;;;7.50;99.90;;;;;;5063934;28;20032;-73
2023/11/24 02:41:33;;;;;;;14.32;2.80;;;7.50;99.90;;;;;;5052077;28;20041;-74
2023/11/24 02:43:59;;;;;;;16.70;2.75;;;7.50;99.90;;;;;;5042545;28;20037;-73
2023/11/24 02:46:24;;;;;;;8.63;2.28;;;7.40;99.90;;;;;;5060549;28;20063;-73
2023/11/24 02:48:56;;;;;;;16.73;2.47;;;7.40;99.90;;;;;;5047464;28;20068;-73
2023/11/24 02:51:24;;;;;;;19.95;3.28;;;7.50;99.90;;;;;;5065542;28;20048;-73
2023/11/24 02:53:49;;;;;;;17.90;2.35;;;7.40;99.90;;;;;;5061194;28;20094;-73
2023/11/24 02:56:15;;;;;;;15.80;2.38;;;7.40;99.90;;;;;;5065904;28;20033;-73
2023/11/24 02:58:41;;;;;;;16.52;2.60;;;7.40;99.90;;;;;;5062220;28;20035;-73
2023/11/24 03:01:07;;;;;;;17.38;2.40;;;7.40;99.90;;;;;;5046677;28;20497;-73
2023/11/24 03:03:37;;;;;;;12.38;2.10;;;7.40;99.90;;;;;;5052694;28;20127;-73
2023/11/24 03:06:06;;;;;;;14.13;2.20;;;7.30;99.90;;;;;;5053534;28;20041;-73
2023/11/24 03:08:32;;;;;;;17.50;2.65;;;8.00;99.90;;;;;;5045837;28;20044;-73
2023/11/24 03:10:58;;;;;;;13.18;2.65;;;7.30;99.90;;;;;;5066590;28;20041;-73
2023/11/24 03:13:24;;;;;;;11.82;2.22;;;7.30;99.90;;;;;;5051047;28;20102;-73
2023/11/24 03:15:51;;;;;;;11.50;2.17;;;7.20;99.90;;;;;;5026539;28;20064;-73
2023/11/24 03:18:17;;;;;;;18.70;2.38;;;7.20;99.90;;;;;;5048917;28;20350;-73
2023/11/24 03:20:42;;;;;;;15.77;2.75;;;7.20;99.90;;;;;;5094407;22;20497;-77
2023/11/24 03:23:08;;;;;;;17.98;2.45;;;7.20;99.90;;;;;;5059967;28;20067;-77
2023/11/24 03:25:34;;;;;;;11.45;2.05;;;7.20;99.90;;;;;;5036043;28;20056;-77
2023/11/24 03:28:03;;;;;;;16.38;2.20;;;7.20;99.90;;;;;;5039393;28;20045;-78
2023/11/24 03:30:30;;;;;;;11.93;2.40;;;7.20;99.90;;;;;;5020517;28;20077;-77
2023/11/24 03:32:55;;;;;;;11.85;2.05;;;7.20;99.90;;;;;;5055450;28;20112;-78
2023/11/24 03:35:22;;;;;;;18.15;2.33;;;7.20;99.90;;;;;;5052830;28;20607;-78
2023/11/24 03:37:48;;;;;;;11.73;2.08;;;7.10;99.90;;;;;;5053394;28;20520;-77
2023/11/24 03:40:14;;;;;;;15.30;2.28;;;7.10;99.90;;;;;;5055155;28;20041;-77
2023/11/24 03:42:39;;;;;;;15.48;3.03;;;7.10;99.90;;;;;;5023339;28;20044;-77
2023/11/24 03:45:06;;;;;;;16.63;2.40;;;7.00;99.90;;;;;;5018198;28;20041;-79
2023/11/24 03:47:32;;;;;;;14.43;2.13;;;7.00;99.90;;;;;;5046389;28;20136;-77
2023/11/24 03:49:59;;;;;;;12.30;2.25;;;7.00;99.90;;;;;;5022882;28;20124;-78
2023/11/24 03:52:25;;;;;;;14.55;2.33;;;7.00;99.90;;;;;;5020470;28;20448;-78
2023/11/24 03:54:51;;;;;;;13.65;2.30;;;7.00;99.90;;;;;;5025300;28;20040;-78
2023/11/24 03:57:16;;;;;;;16.92;2.33;;;7.00;99.90;;;;;;5033218;28;20041;-78
2023/11/24 03:59:42;;;;;;;11.65;2.10;;;7.00;99.90;;;;;;5038237;28;20034;-78
2023/11/24 04:02:07;;;;;;;12.35;2.00;;;7.00;99.90;;;;;;5018389;28;20481;-79
2023/11/24 04:04:33;;;;;;;12.52;2.10;;;7.00;99.90;;;;;;5023522;28;20041;-78
2023/11/24 04:06:59;;;;;;;15.15;2.30;;;7.00;99.90;;;;;;5055813;28;20048;-77
2023/11/24 04:09:25;;;;;;;15.40;2.40;;;7.00;99.90;;;;;;5038872;28;20076;-78
2023/11/24 04:11:52;;;;;;;11.35;1.95;;;7.00;99.90;;;;;;5028088;28;20099;-77
2023/11/24 04:14:18;;;;;;;14.27;1.95;;;7.00;99.90;;;;;;5019097;28;20508;-78
2023/11/24 04:16:44;;;;;;;13.10;2.15;;;8.00;99.90;;;;;;5025753;28;20033;-78
2023/11/24 04:19:09;;;;;;;14.30;2.40;;;7.00;99.90;;;;;;5009483;28;20478;-77
2023/11/24 04:21:35;;;;;;;13.02;1.80;;;6.90;99.90;;;;;;5054719;28;20508;-77
2023/11/24 04:24:01;;;;;;;12.18;1.83;;;7.00;99.90;;;;;;5036611;28;20400;-78
2023/11/24 04:26:26;;;;;;;11.32;2.30;;;6.90;99.90;;;;;;5048244;28;20045;-77
2023/11/24 04:28:54;;;;;;;10.07;2.08;;;6.90;99.90;;;;;;5040016;28;20037;-78
2023/11/24 04:31:20;;;;;;;15.52;2.13;;;6.90;99.90;;;;;;5019176;28;20053;-77
2023/11/24 04:33:46;;;;;;;14.23;2.40;;;6.90;99.90;;;;;;5047073;28;20037;-78
2023/11/24 04:36:11;;;;;;;16.40;2.45;;;6.90;99.90;;;;;;5041706;28;20047;-78
2023/11/24 04:38:37;;;;;;;9.25;1.92;;;6.80;99.90;;;;;;5035816;28;20131;-78
2023/11/24 04:41:02;;;;;;;9.88;1.75;;;6.80;99.90;;;;;;5041524;28;20127;-77
2023/11/24 04:43:28;;;;;;;12.27;1.75;;;6.80;99.90;;;;;;5014749;28;20046;-78
2023/11/24 04:45:53;;;;;;;7.78;1.40;;;6.80;99.90;;;;;;5020924;28;20046;-78
2023/11/24 04:48:19;;;;;;;10.43;1.88;;;6.80;99.90;;;;;;5019903;28;20116;-78
2023/11/24 04:50:44;;;;;;;8.65;1.70;;;6.80;99.90;;;;;;5014894;28;20042;-77
2023/11/24 04:53:10;;;;;;;11.05;1.45;;;6.80;99.90;;;;;;5022046;28;20076;-77
2023/11/24 04:55:36;;;;;;;11.38;2.15;;;6.80;99.90;;;;;;5042845;28;20073;-78
2023/11/24 04:58:01;;;;;;;8.82;1.90;;;6.80;99.90;;;;;;5026865;28;20114;-78
2023/11/24 05:00:28;;;;;;;11.73;1.70;;;6.80;99.90;;;;;;5034634;28;20040;-79
2023/11/24 05:02:53;;;;;;;7.88;1.30;;;6.80;99.90;;;;;;5034364;28;20041;-79
2023/11/24 05:05:19;;;;;;;13.13;2.33;;;6.80;99.90;;;;;;5035031;28;20065;-77
2023/11/24 05:07:44;;;;;;;8.95;1.50;;;6.90;99.90;;;;;;5044239;28;20033;-77
2023/11/24 05:10:10;;;;;;;8.60;1.58;;;6.90;99.90;;;;;;5028780;28;20076;-78
2023/11/24 05:12:36;;;;;;;8.48;1.38;;;6.90;99.90;;;;;;5030326;28;20040;-78
2023/11/24 05:15:08;;;;;;;5.10;1.33;;;6.90;99.90;;;;;;5032887;28;20071;-78
2023/11/24 05:17:35;;;;;;;4.50;0.80;;;6.80;99.90;;;;;;5029978;28;20519;-77
2023/11/24 05:20:00;;;;;;;7.03;1.10;;;6.80;99.90;;;;;;5016031;28;20381;-78
2023/11/24 05:22:26;;;;;;;5.32;1.02;;;6.70;99.90;;;;;;5044531;28;20047;-78
2023/11/24 05:24:52;;;;;;;4.13;0.90;;;6.70;99.90;;;;;;5047710;28;20068;-77
2023/11/24 05:27:17;;;;;;;6.93;0.98;;;6.70;99.90;;;;;;5041946;28;20104;-78
2023/11/24 05:29:43;;;;;;;7.07;1.30;;;6.60;99.90;;;;;;5053562;28;20120;-78
2023/11/24 05:32:08;;;;;;;7.47;1.30;;;6.60;99.90;;;;;;5034133;28;20044;-78
2023/11/24 05:34:35;;;;;;;5.78;1.08;;;6.50;99.90;;;;;;5040931;28;20045;-78
2023/11/24 05:37:07;;;;;;;8.10;1.23;;;6.50;99.90;;;;;;5049126;28;20401;-78
2023/11/24 05:39:35;;;;;;;7.55;1.25;;;6.40;99.90;;;;;;5051847;28;20045;-78
2023/11/24 05:42:01;;;;;;;9.82;1.55;;;6.40;99.90;;;;;;5053435;28;20059;-78
2023/11/24 05:44:26;;;;;;;9.77;1.92;;;6.40;99.90;;;;;;5023997;28;20049;-78
2023/11/24 05:46:52;;;;;;;8.93;1.45;;;6.40;99.90;;;;;;5028445;28;20041;-78
2023/11/24 05:49:17;;;;;;;8.75;1.65;;;6.40;99.90;;;;;;5033521;28;20119;-78
2023/11/24 05:51:43;;;;;;;7.22;1.58;;;6.40;99.90;;;;;;5031791;28;20442;-78
2023/11/24 05:54:10;;;;;;;10.60;1.90;;;6.40;99.90;;;;;;5052901;28;20036;-78
2023/11/24 05:56:35;;;;;;;12.80;2.05;;;6.40;99.90;;;;;;5049481;28;20049;-78
2023/11/24 05:59:01;;;;;;;9.82;2.10;;;6.40;99.90;;;;;;5027842;28;20390;-77
2023/11/24 06:01:27;;;;;;;8.63;2.03;;;6.40;99.90;;;;;;5039132;28;20113;-77
2023/11/24 06:03:53;;;;;;;8.02;1.58;;;6.50;99.90;;;;;;5029602;28;20513;-77
2023/11/24 06:06:18;;;;;;;8.18;1.77;;;6.40;99.90;;;;;;5036600;28;20466;-77
2023/11/24 06:08:44;;;;;;;13.45;1.83;;;6.40;99.90;;;;;;5035410;28;20041;-78
2023/11/24 06:11:09;;;;;;;6.72;1.60;;;6.50;99.90;;;;;;5035023;28;20037;-78
2023/11/24 06:13:35;;;;;;;6.78;1.17;;;6.40;99.90;;;;;;5034869;28;20040;-78
2023/11/24 06:16:00;;;;;;;7.95;1.27;;;6.40;99.90;;;;;;5021425;28;20406;-78
2023/11/24 06:18:26;;;;;;;6.95;1.45;;;6.40;99.90;;;;;;5052944;28;20037;-78
2023/11/24 06:20:52;;;;;;;6.40;1.45;;;6.40;99.90;;;;;;5034944;28;20037;-78
2023/11/24 06:23:17;;;;;;;6.10;1.98;;;6.40;99.90;;;;;;5030287;28;20540;-78
2023/11/24 06:25:43;;;;;;;6.95;1.60;;;6.30;99.90;;;;;;5043044;28;20094;-78
2023/11/24 06:28:09;;;;;;;8.60;1.50;;;6.30;99.90;;;;;;5032022;28;20040;-78
2023/11/24 06:30:34;;;;;;;8.07;1.73;;;6.30;99.90;;;;;;5044299;28;20075;-77
2023/11/24 06:33:00;;;;;;;9.30;1.60;;;6.20;99.90;;;;;;5029503;28;20056;-78
2023/11/24 06:35:25;;;;;;;9.93;1.55;;;6.20;99.90;;;;;;5020334;28;20045;-78
2023/11/24 06:37:51;;;;;;;6.75;1.27;;;6.20;99.90;;;;;;5031248;28;20089;-78
2023/11/24 06:40:17;;;;;;;6.05;1.15;;;6.20;99.90;;;;;;5016313;28;20045;-78
2023/11/24 06:42:42;;;;;;;10.60;1.50;;;6.30;99.90;;;;;;5026082;28;20041;-78
2023/11/24 06:45:09;;;;;;;8.77;1.13;;;6.30;99.90;;;;;;5038888;28;20037;-78
2023/11/24 06:47:39;;;;;;;8.95;1.30;;;6.30;99.90;;;;;;5041883;28;20029;-78
2023/11/24 06:50:07;;;;;;;6.28;1.48;;;6.40;99.90;;;;;;5018552;28;20041;-78
2023/11/24 06:52:32;;;;;;;7.22;1.67;;;6.40;99.90;;;;;;5021618;28;20044;-78
2023/11/24 06:54:58;;;;;;;10.68;1.30;;;6.40;99.90;;;;;;5034182;28;20042;-78
2023/11/24 06:57:23;;;;;;;4.47;1.42;;;6.40;99.90;;;;;;5036786;28;20413;-78
2023/11/24 06:59:49;;;;;;;7.60;1.10;;;6.30;99.90;;;;;;5054468;28;20461;-78
2023/11/24 07:02:14;;;;;;;9.10;1.27;;;6.30;99.90;;;;;;5029089;28;20386;-78
2023/11/24 07:04:40;;;;;;;6.57;1.10;;;6.30;99.90;;;;;;5028095;28;20424;-78
2023/11/24 07:07:05;;;;;;;5.70;1.48;;;6.30;99.90;;;;;;5030875;28;20048;-78
2023/11/24 07:09:31;;;;;;;6.90;1.55;;;6.30;99.90;;;;;;5039632;28;20120;-78
2023/11/24 07:11:57;;;;;;;7.80;1.85;;;6.30;99.90;;;;;;5015815;28;20044;-77
2023/11/24 07:14:22;;;;;;;7.25;1.30;;;6.30;99.90;;;;;;5045019;28;20029;-77
2023/11/24 07:16:48;;;;;;;4.57;1.13;;;6.30;99.90;;;;;;5041941;28;20041;-77
2023/11/24 07:19:13;;;;;;;7.32;1.17;;;6.30;99.90;;;;;;5037840;28;20037;-77
2023/11/24 07:21:39;;;;;;;9.82;1.75;;;6.30;99.90;;;;;;5039167;28;20049;-77
2023/11/24 07:24:05;;;;;;;6.40;1.27;;;6.30;99.90;;;;;;5030607;28;20048;-77
2023/11/24 07:26:31;;;;;;;9.57;1.50;;;6.30;99.90;;;;;;5049186;28;20393;-77
2023/11/24 07:28:56;;;;;;;11.80;1.80;;;6.30;99.90;;;;;;5035583;28;20037;-77
2023/11/24 07:31:22;;;;;;;6.65;1.40;;;6.30;99.90;;;;;;5043693;28;20055;-77
2023/11/24 07:33:48;;;;;;;10.35;1.77;;;6.30;99.90;;;;;;5031176;28;20124;-78
2023/11/24 07:36:15;;;;;;;9.88;1.40;;;6.30;99.90;;;;;;5024979;28;20458;-76
2023/11/24 07:38:41;;;;;;;8.40;1.50;;;7.30;99.90;;;;;;5031427;28;20067;-77
2023/11/24 07:41:08;;;;;;;7.68;1.67;;;6.40;99.90;;;;;;5025817;28;20054;-77
2023/11/24 07:43:34;;;;;;;7.35;1.20;;;6.30;99.90;;;;;;5027347;28;20135;-78
2023/11/24 07:45:59;;;;;;;4.70;1.42;;;6.40;99.90;;;;;;5023082;28;20136;-78
2023/11/24 07:48:25;;;;;;;7.40;1.20;;;6.40;99.90;;;;;;5025845;28;20037;-78
2023/11/24 07:50:51;;;;;;;5.65;1.10;;;6.30;99.90;;;;;;5022737;28;20064;-77
2023/11/24 07:53:17;;;;;;;25.50;11.95;;;6.30;99.90;;;;;;5027240;28;20045;-77
2023/11/24 07:55:44;;;;;;;20.55;11.20;;;6.30;99.90;;;;;;5026748;28;20037;-77
2023/11/24 07:58:10;;;;;;;25.38;15.32;;;6.30;99.90;;;;;;5030937;28;20114;-77
2023/11/24 08:00:37;;;;;;;21.65;12.55;;;6.30;99.90;;;;;;5024754;28;20048;-77
2023/11/24 08:03:03;;;;;;;10.50;5.47;;;6.20;99.90;;;;;;5029489;28;20520;-77
2023/11/24 08:05:29;;;;;;;8.48;3.80;;;6.20;99.90;;;;;;5037985;28;20044;-76
2023/11/24 08:07:55;;;;;;;6.93;3.30;;;6.20;99.90;;;;;;5052141;28;20033;-76
2023/11/24 08:10:20;;;;;;;10.68;4.50;;;6.20;99.90;;;;;;5028085;28;20456;-77
2023/11/24 08:12:46;;;;;;;12.02;4.15;;;6.20;99.90;;;;;;5026768;28;20044;-75
2023/11/24 08:15:12;;;;;;;9.00;5.55;;;6.20;99.90;;;;;;5040062;28;20041;-77
2023/11/24 08:17:39;;;;;;;10.93;5.20;;;6.20;99.90;;;;;;5023859;28;20040;-76
2023/11/24 08:20:10;;;;;;;10.40;5.00;;;6.20;99.90;;;;;;5029989;28;20036;-76
2023/11/24 08:22:39;;;;;;;13.82;4.50;;;6.10;99.90;;;;;;5020171;28;20120;-76
2023/11/24 08:25:09;;;;;;;16.48;3.72;;;6.10;99.90;;;;;;5030836;28;20438;-76
2023/11/24 08:27:35;;;;;;;14.40;3.55;;;6.10;99.90;;;;;;5037051;28;20037;-76
2023/11/24 08:30:04;;;;;;;9.10;4.55;;;6.10;99.90;;;;;;5034906;28;20053;-76
2023/11/24 08:32:30;;;;;;;14.40;4.93;;;6.10;99.90;;;;;;5019767;28;20153;-77
2023/11/24 08:34:56;;;;;;;10.63;3.45;;;6.00;99.90;;;;;;5030383;28;20119;-76
2023/11/24 08:37:22;;;;;;;8.32;2.38;;;6.00;99.90;;;;;;5027812;28;20045;-76
2023/11/24 08:39:47;;;;;;;7.30;2.33;;;6.00;99.90;;;;;;5025921;28;20037;-77
2023/11/24 08:42:13;;;;;;;13.43;2.42;;;5.90;99.90;;;;;;5049775;28;20603;-77
2023/11/24 08:44:38;;;;;;;14.90;5.00;;;5.90;99.90;;;;;;5018469;28;20506;-76
2023/11/24 08:47:04;;;;;;;17.30;5.43;;;5.90;99.90;;;;;;5036222;28;20048;-76
2023/11/24 08:49:30;;;;;;;10.00;3.08;;;6.00;99.90;;;;;;5030695;28;20091;-77
2023/11/24 08:51:55;;;;;;;17.15;3.40;;;6.00;99.90;;;;;;5035535;28;20059;-77
2023/11/24 08:54:22;;;;;;;11.77;2.67;;;6.20;99.90;;;;;;5036456;28;20508;-76
2023/11/24 08:56:48;;;;;;;13.82;2.72;;;6.00;99.90;;;;;;5051998;28;20536;-77
2023/11/24 08:59:14;;;;;;;12.68;2.35;;;5.90;99.90;;;;;;5047136;28;20112;-76
2023/11/24 09:01:39;;;;;;;12.98;2.80;;;6.00;99.90;;;;;;5033159;28;20060;-76
2023/11/24 09:04:05;;;;;;;9.63;2.97;;;6.00;99.90;;;;;;5028614;28;20045;-76
2023/11/24 09:06:31;;;;;;;13.30;2.42;;;6.00;99.90;;;;;;5054312;28;20559;-76
2023/11/24 09:08:58;;;;;;;12.27;3.42;;;5.90;99.90;;;;;;5035453;28;20408;-78
2023/11/24 09:11:25;;;;;;;9.55;2.90;;;5.90;99.90;;;;;;5052054;28;20045;-76
2023/11/24 09:13:51;;;;;;;16.58;5.68;;;6.00;99.90;;;;;;5038740;28;20040;-77
2023/11/24 09:16:18;;;;;;;15.75;5.00;;;6.10;99.90;;;;;;5035326;28;20103;-76
2023/11/24 09:18:44;;;;;;;10.07;2.00;;;6.10;99.90;;;;;;5051139;28;20071;-76
2023/11/24 09:21:10;;;;;;;10.45;1.90;;;6.10;99.90;;;;;;5022126;28;20049;-76
2023/11/24 09:23:36;;;;;;;7.80;3.20;;;6.10;99.90;;;;;;5051318;22;20460;-72
2023/11/24 09:26:06;;;;;;;11.52;2.47;;;6.10;99.90;;;;;;5052298;28;20116;-72
2023/11/24 09:28:31;;;;;;;12.18;1.92;;;6.10;99.90;;;;;;5054477;28;20458;-71
2023/11/24 09:30:57;;;;;;;8.93;2.67;;;6.10;99.90;;;;;;5054707;28;20048;-72
2023/11/24 09:33:23;;;;;;;8.45;1.73;;;6.10;99.90;;;;;;5016860;28;20120;-73
2023/11/24 09:35:50;;;;;;;12.43;2.50;;;6.10;99.90;;;;;;5012874;28;20121;-74
2023/11/24 09:38:15;;;;;;;9.88;2.25;;;6.10;99.90;;;;;;5015399;28;20048;-72
2023/11/24 09:40:49;;;;;;;9.77;3.08;;;6.10;99.90;;;;;;5052443;28;20045;-73
2023/11/24 09:43:15;;;;;;;8.95;3.45;;;6.00;99.90;;;;;;5036975;28;20044;-73
2023/11/24 09:45:41;;;;;;;9.38;3.03;;;6.00;99.90;;;;;;5044579;28;20322;-72
2023/11/24 09:48:08;;;;;;;7.97;1.60;;;6.00;99.90;;;;;;5021392;28;20487;-72
2023/11/24 09:50:35;;;;;;;11.40;2.13;;;6.00;99.90;;;;;;5053469;28;20045;-74
2023/11/24 09:53:00;;;;;;;8.57;1.65;;;6.20;99.90;;;;;;5048305;28;20040;-72
2023/11/24 09:55:29;;;;;;;11.30;1.77;;;6.10;99.90;;;;;;5068449;28;20045;-73
2023/11/24 09:57:56;;;;;;;8.85;2.08;;;6.10;99.90;;;;;;5044966;28;20504;-73
2023/11/24 10:00:23;;;;;;;13.52;2.97;;;6.20;99.90;;;;;;5048911;28;20062;-72
2023/11/24 10:02:52;;;;;;;13.65;1.95;;;6.20;99.90;;;;;;5033110;28;20045;-72
2023/11/24 10:05:18;;;;;;;11.98;2.72;;;6.20;99.90;;;;;;5012572;28;20509;-72
2023/11/24 10:07:50;;;;;;;10.65;2.10;;;6.20;99.90;;;;;;5053833;28;20048;-72
2023/11/24 10:10:24;;;;;;;17.73;3.00;;;6.20;99.90;;;;;;5061504;28;20492;-71
2023/11/24 10:12:52;;;;;;;15.02;2.80;;;6.50;99.90;;;;;;5029876;28;20501;-72
2023/11/24 10:15:20;;;;;;;17.27;3.40;;;6.20;99.90;;;;;;5037460;28;20041;-72
2023/11/24 10:17:48;;;;;;;20.35;2.88;;;6.20;99.90;;;;;;5058753;28;20401;-73
2023/11/24 10:20:18;;;;;;;14.27;2.90;;;6.30;99.90;;;;;;5035475;28;20055;-72
2023/11/24 10:22:49;;;;;;;15.60;3.22;;;6.40;99.90;;;;;;5055485;28;20439;-73
2023/11/24 10:25:22;;;;;;;16.48;3.45;;;7.00;99.90;;;;;;5027151;28;20128;-73
2023/11/24 10:27:48;;;;;;;21.58;3.55;;;6.50;99.90;;;;;;5042533;28;20040;-72
2023/11/24 10:30:17;;;;;;;16.90;4.95;;;6.50;99.90;;;;;;5029025;28;20059;-72
2023/11/24 10:32:47;;;;;;;18.83;4.13;;;6.50;99.90;;;;;;5049166;28;20040;-71
2023/11/24 10:35:15;;;;;;;17.45;3.40;;;6.50;99.90;;;;;;5027248;28;20048;-72
2023/11/24 10:37:41;;;;;;;15.38;3.40;;;6.60;99.90;;;;;;5043769;28;20040;-71
2023/11/24 10:40:11;;;;;;;16.73;3.72;;;6.60;99.90;;;;;;5011408;28;20032;-72
2023/11/24 10:42:40;;;;;;;22.42;4.07;;;6.60;99.90;;;;;;5034074;28;20033;-70
2023/11/24 10:45:10;;;;;;;19.95;4.47;;;6.70;99.90;;;;;;5043755;28;20071;-72
2023/11/24 10:47:43;;;;;;;16.77;4.05;;;6.80;99.90;;;;;;5032526;28;20037;-71
2023/11/24 10:50:21;;;;;;;17.55;4.65;;;6.90;99.90;;;;;;5031801;28;20060;-72
2023/11/24 10:53:14;;;;;;;22.40;4.25;;;6.90;99.90;;;;;;5018241;28;20111;-72
2023/11/24 10:55:42;;;;;;;19.33;3.70;;;7.00;99.90;;;;;;5031804;28;20045;-72
2023/11/24 10:58:09;;;;;;;15.00;3.22;;;7.10;99.90;;;;;;5032344;28;20045;-72
2023/11/24 11:00:37;;;;;;;20.40;5.10;;;7.20;99.90;;;;;;5029920;28;20066;-72
2023/11/24 11:03:03;;;;;;;23.75;6.00;;;7.20;99.90;;;;;;5017427;28;20400;-72
2023/11/24 11:05:51;;;;;;;16.88;5.10;;;7.20;99.90;;;;;;5032461;28;20052;-72
2023/11/24 11:08:35;;;;;;;18.98;5.35;;;7.20;99.90;;;;;;5030297;28;20049;-73
2023/11/24 11:11:06;;;;;;;23.02;9.10;;;7.20;99.90;;;;;;5022226;28;20144;-73
2023/11/24 11:13:36;;;;;;;20.45;4.75;;;7.10;99.90;;;;;;5038000;28;20072;-72
2023/11/24 11:16:08;;;;;;;18.65;3.55;;;7.10;99.90;;;;;;5041965;28;20216;-76
2023/11/24 11:18:34;;;;;;;16.33;3.47;;;7.00;99.90;;;;;;5038627;28;20041;-72
2023/11/24 11:21:28;;;;;;;14.30;4.20;;;7.00;99.90;;;;;;5021390;28;20033;-73
2023/11/24 11:23:57;;;;;;;17.55;5.50;;;6.90;99.90;;;;;;5020831;28;20121;-73
2023/11/24 11:26:43;;;;;;;20.98;4.32;;;6.90;99.90;;;;;;5035518;28;20077;-76
2023/11/24 11:29:09;;;;;;;15.50;3.97;;;6.90;99.90;;;;;;5041881;28;20055;-73
2023/11/24 11:31:37;;;;;;;23.13;4.03;;;6.90;99.90;;;;;;5046106;28;20040;-75
2023/11/24 11:34:14;;;;;;;16.15;3.60;;;6.90;99.90;;;;;;5041548;28;20041;-72
2023/11/24 11:37:08;;;;;;;14.48;3.63;;;6.90;99.90;;;;;;5046086;28;20048;-71
2023/11/24 11:39:58;;;;;;;12.82;3.45;;;6.80;99.90;;;;;;5031799;28;20056;-71
2023/11/24 11:42:31;;;;;;;12.45;3.83;;;6.80;99.90;;;;;;5023547;28;20486;-72
2023/11/24 11:45:09;;;;;;;28.00;12.50;;;6.80;99.90;;;;;;5027339;28;20044;-74
2023/11/24 11:47:47;;;;;;;19.45;7.07;;;6.80;99.90;;;;;;5008120;28;20030;-72
2023/11/24 11:50:20;;;;;;;13.55;4.45;;;7.40;99.90;;;;;;5047094;28;20733;-72
2023/11/24 11:52:46;;;;;;;;;;;6.10;99.90;;;;;;5044143;28;20375;-73
2023/11/24 11:55:19;;;;;;;12.90;3.97;;;6.50;99.90;;;;;;5046796;28;19924;-73
2023/11/24 11:57:55;;;;;;;8.80;2.63;;;6.60;99.90;;;;;;5038284;28;20036;-72
2023/11/24 12:00:28;;;;;;;12.13;3.75;;;6.60;99.90;;;;;;5044600;28;20041;-72
2023/11/24 12:02:58;;;;;;;13.93;2.92;;;6.60;99.90;;;;;;5022336;28;20073;-73
2023/11/24 12:05:25;;;;;;;10.25;2.60;;;6.50;99.90;;;;;;5023816;28;20091;-72
2023/11/24 12:07:52;;;;;;;9.95;3.17;;;6.40;99.90;;;;;;5027349;28;20044;-73
2023/11/24 12:10:29;;;;;;;12.95;3.65;;;6.40;99.90;;;;;;5038268;28;20049;-72
2023/11/24 12:12:55;;;;;;;15.65;3.83;;;6.40;99.90;;;;;;5035017;28;20057;-73
2023/11/24 12:15:23;;;;;;;17.50;4.90;;;6.40;99.90;;;;;;5044097;28;20045;-73
2023/11/24 12:17:52;;;;;;;15.13;4.00;;;6.30;99.90;;;;;;5041873;28;20058;-73
2023/11/24 12:20:18;;;;;;;14.30;3.88;;;6.40;99.90;;;;;;5041453;28;20052;-73
2023/11/24 12:22:45;;;;;;;17.20;3.00;;;6.50;99.90;;;;;;5032877;28;20448;-74
2023/11/24 12:25:12;;;;;;;16.98;3.53;;;6.50;99.90;;;;;;5041788;28;20051;-73
2023/11/24 12:27:42;;;;;;;15.35;3.78;;;6.60;99.90;;;;;;5047413;28;20483;-74
2023/11/24 12:30:11;;;;;;;12.23;3.40;;;6.70;99.90;;;;;;5023408;28;20045;-75
2023/11/24 12:32:37;;;;;;;13.57;2.88;;;6.80;99.90;;;;;;5035436;28;20038;-74
2023/11/24 12:35:07;;;;;;;10.30;2.75;;;6.80;99.90;;;;;;5025911;28;20044;-73
2023/11/24 12:37:33;;;;;;;10.57;2.88;;;6.90;99.90;;;;;;5024620;28;20076;-73
2023/11/24 12:40:00;;;;;;;9.48;2.70;;;6.90;99.90;;;;;;5029903;28;20041;-74
2023/11/24 12:42:32;;;;;;;17.63;3.00;;;7.00;99.90;;;;;;5047639;28;20033;-72
2023/11/24 12:44:59;;;;;;;10.70;2.85;;;7.10;99.90;;;;;;5027588;28;20045;-73
2023/11/24 12:47:25;;;;;;;20.17;3.15;;;7.20;99.90;;;;;;5026735;28;20117;-73
2023/11/24 12:50:10;;;;;;;8.60;2.10;;;7.30;99.90;;;;;;5046053;28;20029;-73
2023/11/24 12:52:37;;;;;;;10.35;2.28;;;7.40;99.90;;;;;;5023995;28;20048;-73